• Join FlightAware (Why Join?)
  • Login
  • US Flag 
01:06PM EDT


 

Airport Tracker/Info


-or-


 

Live Flight TrackerFlight Track Log ✈ AWE3418 ✈ 09-Apr-2013 ✈ KPHL - KMHT

Flight Track Log - Related Links

Times and Time Zones

All times are in EDT time to prevent confusion due to time zone crossing. See the AWE3418 flight status page for this flight to view local times or setup timezone preferences in your user account.

Time Position Orientation Groundspeed Altitude Reporting Facility
EDT Latitude Longitude Course Direction KTS MPH feet Rate Location/Type
07:20PM 39.8603 -75.2728 37° Northeast 145 167 1,000  Level FAA TRACON SMA TRACON (SMA)
07:20PM 39.8522 -75.2822 222° Southwest 138 159 1,700 1,620 Climbing FAA TRACON SMA TRACON (SMA)
07:20PM 39.8378 -75.2964 217° Southwest 192 221 2,100 1,800 Climbing FAA TRACON SMA TRACON (SMA)
07:21PM 39.8236 -75.3106 218° Southwest 213 245 2,900 2,220 Climbing FAA TRACON SMA TRACON (SMA)
07:21PM 39.8100 -75.3244 218° Southwest 216 249 3,600 1,920 Climbing FAA TRACON SMA TRACON (SMA)
07:21PM 39.7900 -75.3433 216° Southwest 242 278 4,200 2,520 Climbing FAA TRACON SMA TRACON (SMA)
07:22PM 39.7700 -75.3625 216° Southwest 262 302 5,300 3,300 Climbing FAA TRACON SMA TRACON (SMA)
07:22PM 39.7517 -75.3797 216° Southwest 265 305 6,400 3,420 Climbing FAA TRACON SMA TRACON (SMA)
07:22PM 39.7253 -75.3908 198° South 283 326 7,600 3,300 Climbing FAA TRACON SMA TRACON (SMA)
07:23PM 39.8122 -74.8442 105° East  Level FlightAware Approximate
07:23PM 39.7019 -75.3806 161° South 285 328 8,600  Level FAA TRACON SMA TRACON (SMA)
07:23PM 39.6856 -75.3550 130° Southeast 323 372 9,400 2,520 Climbing FAA TRACON SMA TRACON (SMA)
07:23PM 39.6828 -75.3125 95° East 320 368 10,300 1,920 Climbing FAA TRACON SMA TRACON (SMA)
07:24PM 39.7925 -74.7459 105° East  Level FlightAware Approximate
07:24PM 39.6892 -75.2767 77° East 342 394 10,700  Level FAA TRACON SMA TRACON (SMA)
07:24PM 39.6986 -75.2333 74° East 347 399 11,200 1,800 Climbing FAA TRACON SMA TRACON (SMA)
07:24PM 39.7050 -75.1914 79° East 358 412 11,900 1,200 Climbing FAA TRACON SMA TRACON (SMA)
07:25PM 39.8163 -74.6671 37° Northeast  Level FlightAware Approximate
07:25PM 39.7128 -75.1528 75° East 360 414 12,000  Level FAA TRACON SMA TRACON (SMA)
07:25PM 39.7217 -75.1047 76° East 359 413 12,000  Level FAA TRACON SMA TRACON (SMA)
07:25PM 39.7289 -75.0664 76° East 358 412 12,000  Level FAA TRACON SMA TRACON (SMA)
07:26PM 39.7356 -75.0300 77° East 358 412 12,000  Level FAA TRACON SMA TRACON (SMA)
07:26PM 39.7447 -74.9797 77° East 358 412 12,000  Level FAA TRACON SMA TRACON (SMA)
07:26PM 39.7519 -74.9411 76° East 358 412 12,000  Level FAA TRACON SMA TRACON (SMA)
07:27PM 39.7592 -74.9025 76° East 358 412 12,000 1,020 Level FAA TRACON SMA TRACON (SMA)
07:27PM 39.7675 -74.8556 77° East 361 415 12,700 2,520 Climbing FAA TRACON SMA TRACON (SMA)
07:27PM 39.7753 -74.8144 76° East 364 419 13,700 2,520 Climbing FAA TRACON SMA TRACON (SMA)
07:28PM 39.7875 -74.7767 67° East 371 427 14,400 2,400 Climbing FAA TRACON SMA TRACON (SMA)
07:28PM 39.8119 -74.7381 50° Northeast 369 425 15,300 2,520 Climbing FAA TRACON SMA TRACON (SMA)
07:28PM 39.8344 -74.7119 42° Northeast 354 407 16,100 2,400 Climbing FAA TRACON SMA TRACON (SMA)
07:29PM 39.8628 -74.6800 41° Northeast 364 419 16,900 2,100 Climbing FAA TRACON SMA TRACON (SMA)
07:29PM 39.8861 -74.6544 40° Northeast 362 417 17,500 1,500 Climbing FAA TRACON SMA TRACON (SMA)
07:29PM 39.9019 -74.6350 43° Northeast 364 419 17,900 600 Climbing FAA TRACON SMA TRACON (SMA)
07:30PM 39.9019 -74.6350 360° North 364 419 17,900 1,920 Level FAA TRACON SMA TRACON (SMA)
07:32PM 40.1311 -74.3844 40° Northeast 375 432 23,200 2,040 Climbing New York Center
07:33PM 40.2211 -74.3019 35° Northeast 380 437 24,900 900 Climbing New York Center
07:34PM 40.3067 -74.2331 32° Northeast 375 432 25,000  Climbing New York Center
07:35PM 40.3919 -74.1636 32° Northeast 365 420 25,000  Level New York Center
07:36PM 40.4753 -74.0942 32° Northeast 360 414 25,000  Level New York Center
07:38PM 40.6331 -73.9742 30° Northeast 355 409 25,000  Level Boston Center
07:39PM 40.7175 -73.9050 32° Northeast 355 409 25,000  Level Boston Center
07:40PM 40.8036 -73.8358 31° Northeast 360 414 25,000  Level Boston Center
07:41PM 40.9106 -73.7886 18° North 354 407 25,000  Level Boston Center
07:42PM 41.0044 -73.7906 359° North 336 387 25,000  Level Boston Center
07:43PM 41.1000 -73.7981 357° North 336 387 25,000  Level Boston Center
07:44PM 41.1958 -73.8000 359° North 331 381 25,000  Level Boston Center
07:45PM 41.2897 -73.8047 358° North 331 381 25,000  Level Boston Center
07:46PM 41.3856 -73.8097 358° North 336 387 25,000  Level Boston Center
07:47PM 41.4772 -73.8117 359° North 336 387 25,000  Level Boston Center
07:48PM 41.5731 -73.8192 357° North 336 387 25,000  Level Boston Center
07:49PM 41.6647 -73.8211 359° North 336 387 25,000  Level Boston Center
07:50PM 41.7606 -73.8206 360° North 336 387 25,000  Level Boston Center
07:51PM 41.8625 -73.8228 359° North 331 381 25,000  Level Boston Center
07:52PM 41.9567 -73.8025 North 331 381 25,000  Level Boston Center
07:53PM 42.0286 -73.7033 46° Northeast 338 389 25,000 -240 Level Boston Center
07:54PM 42.0903 -73.5928 53° Northeast 355 409 24,600 -780 Descending Boston Center
07:55PM 42.1561 -73.4764 53° Northeast 369 425 23,500 -1,140 Descending Boston Center
07:56PM 42.2258 -73.3456 54° Northeast 384 442 22,400 -1,140 Descending Boston Center
07:57PM 42.2892 -73.2317 53° Northeast 384 442 21,300 -1,020 Descending Boston Center
07:58PM 42.3547 -73.1117 54° Northeast 384 442 20,400 -1,020 Descending Boston Center
07:59PM 42.4178 -72.9886 55° Northeast 384 442 19,300 -720 Descending Boston Center
08:00PM 42.4786 -72.8819 52° Northeast 374 430 19,000 -180 Descending Boston Center
08:01PM 42.5417 -72.7642 54° Northeast 374 430 19,000  Level Boston Center
08:02PM 42.6003 -72.6489 55° Northeast 379 436 19,000 -540 Level Boston Center
08:03PM 42.6442 -72.5361 62° Northeast 379 436 18,000 -1,500 Descending Boston Center
08:04PM 42.6881 -72.3950 67° East 373 429 16,100 -1,800 Descending Boston Center
08:05PM 42.7172 -72.2931 69° East 367 422 14,500 -2,040 Descending Boston Center
08:06PM 42.7564 -72.1431 70° East 356 410 12,100 -2,040 Descending Boston Center
08:07PM 42.7914 -72.0269 68° East 344 396 10,500 -1,740 Descending Boston Center
08:08PM 42.8033 -71.9053 82° East 317 365 8,700 -1,740 Descending Boston Center
08:09PM 42.7967 -71.7864 94° East 309 356 7,100 -1,800 Descending Boston Center
08:10PM 42.7875 -71.6733 96° East 309 356 5,200 -1,440 Descending Boston Center
08:11PM 42.7806 -71.5689 95° East 299 344 4,300 -840 Descending Boston Center
08:12PM 42.7881 -71.4811 83° East 243 280 3,500 -780 Descending Boston Center
08:13PM 42.8083 -71.4014 71° East 222 255 2,800 -720 Descending Boston Center
08:14PM 42.8519 -71.3894 11° North 159 183 2,100 -720 Descending Boston Center